createdAt,value
2023-04-27T00:00:11.561Z,9.75
2023-04-27T00:01:43.894Z,9.75
2023-04-27T00:03:15.983Z,9.72
2023-04-27T00:04:48.078Z,9.69
2023-04-27T00:06:19.852Z,9.67
2023-04-27T00:07:51.556Z,9.60
2023-04-27T00:09:23.417Z,9.54
2023-04-27T00:10:54.987Z,9.51
2023-04-27T00:12:26.482Z,9.44
2023-04-27T00:14:00.356Z,9.41
2023-04-27T00:15:31.948Z,9.41
2023-04-27T00:17:03.983Z,9.40
2023-04-27T00:18:35.476Z,9.41
2023-04-27T00:20:09.037Z,9.42
2023-04-27T00:21:40.774Z,9.43
2023-04-27T00:23:12.388Z,9.44
2023-04-27T00:24:44.014Z,9.50
2023-04-27T00:26:15.903Z,9.51
2023-04-27T00:27:47.578Z,9.52
2023-04-27T00:29:19.130Z,9.53
2023-04-27T00:30:50.690Z,9.53
2023-04-27T00:32:22.164Z,9.53
2023-04-27T00:33:53.738Z,9.54
2023-04-27T00:35:25.262Z,9.50
2023-04-27T00:36:57.835Z,9.51
2023-04-27T00:38:29.725Z,9.49
2023-04-27T00:40:01.388Z,9.48
2023-04-27T00:41:32.835Z,9.46
2023-04-27T00:43:04.356Z,9.41
2023-04-27T00:44:38.068Z,9.40
2023-04-27T00:46:12.122Z,9.38
2023-04-27T00:47:43.718Z,9.33
2023-04-27T00:49:15.286Z,9.27
2023-04-27T00:50:47.113Z,9.26
2023-04-27T00:52:18.865Z,9.27
2023-04-27T00:53:50.490Z,9.29
2023-04-27T00:55:22.470Z,9.30
2023-04-27T00:56:54.018Z,9.31
2023-04-27T00:58:26.085Z,9.30
2023-04-27T00:59:57.787Z,9.29
2023-04-27T01:01:29.790Z,9.32
2023-04-27T01:03:01.897Z,9.32
2023-04-27T01:04:34.209Z,9.33
2023-04-27T01:06:05.918Z,9.32
2023-04-27T01:07:38.182Z,9.33
2023-04-27T01:09:10.007Z,9.35
2023-04-27T01:10:41.817Z,9.37
2023-04-27T01:12:13.728Z,9.41
2023-04-27T01:13:45.199Z,9.39
2023-04-27T01:15:16.867Z,9.36
2023-04-27T01:16:48.432Z,9.39
2023-04-27T01:18:19.925Z,9.36
2023-04-27T01:19:55.564Z,9.32
2023-04-27T01:21:27.468Z,9.30
2023-04-27T01:22:59.010Z,9.27
2023-04-27T01:24:30.683Z,9.24
2023-04-27T01:26:02.149Z,9.20
2023-04-27T01:27:34.154Z,9.20
2023-04-27T01:29:05.596Z,9.18
2023-04-27T01:30:37.159Z,9.19
2023-04-27T01:32:08.710Z,9.17
2023-04-27T01:33:41.027Z,9.17
2023-04-27T01:35:12.965Z,9.20
2023-04-27T01:36:44.453Z,9.16
2023-04-27T01:38:16.406Z,9.13
2023-04-27T01:39:48.479Z,9.08
2023-04-27T01:41:19.959Z,9.05
2023-04-27T01:42:51.395Z,9.05
2023-04-27T01:44:24.122Z,9.03
2023-04-27T01:45:55.742Z,8.97
2023-04-27T01:47:27.967Z,8.96
2023-04-27T01:48:59.614Z,8.95
2023-04-27T01:50:31.300Z,8.95
2023-04-27T01:52:02.816Z,8.93
2023-04-27T01:53:34.512Z,8.92
2023-04-27T01:55:06.345Z,8.90
2023-04-27T01:56:38.056Z,8.89
2023-04-27T01:58:09.560Z,8.87
2023-04-27T01:59:41.532Z,8.82
2023-04-27T02:01:13.076Z,8.79
2023-04-27T02:02:45.541Z,8.82
2023-04-27T02:04:17.601Z,8.79
2023-04-27T02:05:49.726Z,8.79
2023-04-27T02:07:21.429Z,8.77
2023-04-27T02:08:52.866Z,8.76
2023-04-27T02:10:25.010Z,8.72
2023-04-27T02:11:56.943Z,8.70
2023-04-27T02:13:29.011Z,8.71
2023-04-27T02:15:00.496Z,8.72
2023-04-27T02:16:33.033Z,8.71
2023-04-27T02:18:04.806Z,8.73
2023-04-27T02:19:36.544Z,8.72
2023-04-27T02:21:08.576Z,8.72
2023-04-27T02:22:45.609Z,8.72
2023-04-27T02:24:17.182Z,8.74
2023-04-27T02:25:49.032Z,8.72
2023-04-27T02:27:20.738Z,8.71
2023-04-27T02:28:52.776Z,8.74
2023-04-27T02:30:25.034Z,8.72
2023-04-27T02:31:57.106Z,8.69
2023-04-27T02:33:28.785Z,8.68
2023-04-27T02:35:00.435Z,8.66
2023-04-27T02:36:31.980Z,8.69
2023-04-27T02:38:03.441Z,8.71
2023-04-27T02:39:35.055Z,8.68
2023-04-27T02:41:06.934Z,8.65
2023-04-27T02:42:39.179Z,8.61
2023-04-27T02:44:15.299Z,8.60
2023-04-27T02:45:47.781Z,8.62
2023-04-27T02:47:20.161Z,8.60
2023-04-27T02:48:51.620Z,8.59
2023-04-27T02:50:23.387Z,8.54
2023-04-27T02:51:55.091Z,8.49
2023-04-27T02:53:26.892Z,8.50
2023-04-27T02:54:58.426Z,8.48
2023-04-27T02:56:31.316Z,8.51
2023-04-27T02:58:04.136Z,8.54
2023-04-27T02:59:36.428Z,8.55
2023-04-27T03:01:08.268Z,8.53
2023-04-27T03:02:40.096Z,8.52
2023-04-27T03:04:14.202Z,8.49
2023-04-27T03:05:46.633Z,8.47
2023-04-27T03:07:18.755Z,8.46
2023-04-27T03:08:50.942Z,8.42
2023-04-27T03:10:22.693Z,8.42
2023-04-27T03:11:55.549Z,8.42
2023-04-27T03:13:28.248Z,8.41
2023-04-27T03:15:00.603Z,8.38
2023-04-27T03:16:33.119Z,8.33
2023-04-27T03:18:05.276Z,8.28
2023-04-27T03:19:37.331Z,8.22
2023-04-27T03:21:09.358Z,8.21
2023-04-27T03:22:41.087Z,8.18
2023-04-27T03:24:13.042Z,8.14
2023-04-27T03:25:44.601Z,8.13
2023-04-27T03:27:16.231Z,8.08
2023-04-27T03:28:47.812Z,8.03
2023-04-27T03:30:19.938Z,8.00
2023-04-27T03:31:51.544Z,7.96
2023-04-27T03:33:23.173Z,7.93
2023-04-27T03:34:54.595Z,7.92
2023-04-27T03:36:27.622Z,7.88
2023-04-27T03:37:59.306Z,7.82
2023-04-27T03:39:31.812Z,7.78
2023-04-27T03:41:04.395Z,7.74
2023-04-27T03:42:42.041Z,7.70
2023-04-27T03:44:14.674Z,7.66
2023-04-27T03:45:47.122Z,7.61
2023-04-27T03:47:18.923Z,7.60
2023-04-27T03:48:50.896Z,7.58
2023-04-27T03:50:22.420Z,7.58
2023-04-27T03:51:53.898Z,7.55
2023-04-27T03:53:26.088Z,7.56
2023-04-27T03:54:57.760Z,7.54
2023-04-27T03:56:29.401Z,7.54
2023-04-27T03:58:01.030Z,7.52
2023-04-27T03:59:32.736Z,7.50
2023-04-27T04:01:05.351Z,7.48
2023-04-27T04:02:37.307Z,7.46
2023-04-27T04:04:09.045Z,7.45
2023-04-27T04:05:41.150Z,7.41
2023-04-27T04:07:12.964Z,7.41
2023-04-27T04:08:44.441Z,7.41
2023-04-27T04:10:16.065Z,7.42
2023-04-27T04:11:47.649Z,7.40
2023-04-27T04:13:19.417Z,7.41
2023-04-27T04:14:51.476Z,7.44
2023-04-27T04:16:23.175Z,7.45
2023-04-27T04:17:54.984Z,7.44
2023-04-27T04:19:27.104Z,7.44
2023-04-27T04:20:58.579Z,7.46
2023-04-27T04:22:30.302Z,7.48
2023-04-27T04:24:02.242Z,7.49
2023-04-27T04:25:33.920Z,7.50
2023-04-27T04:27:05.590Z,7.50
2023-04-27T04:28:37.237Z,7.49
2023-04-27T04:30:08.949Z,7.51
2023-04-27T04:31:40.696Z,7.50
2023-04-27T04:33:12.271Z,7.51
2023-04-27T04:34:43.802Z,7.49
2023-04-27T04:36:15.547Z,7.52
2023-04-27T04:37:47.363Z,7.52
2023-04-27T04:39:22.471Z,7.52
2023-04-27T04:40:54.809Z,7.49
2023-04-27T04:42:26.880Z,7.51
2023-04-27T04:43:58.732Z,7.52
2023-04-27T04:45:30.337Z,7.53
2023-04-27T04:47:01.874Z,7.54
2023-04-27T04:48:33.646Z,7.56
2023-04-27T04:50:05.472Z,7.56
2023-04-27T04:51:37.324Z,7.58
2023-04-27T04:53:08.842Z,7.60
2023-04-27T04:54:40.291Z,7.63
2023-04-27T04:56:12.498Z,7.63
2023-04-27T04:57:44.136Z,7.64
2023-04-27T04:59:16.450Z,7.66
2023-04-27T05:00:48.228Z,7.67
2023-04-27T05:02:20.540Z,7.68
2023-04-27T05:03:52.861Z,7.69
2023-04-27T05:05:25.087Z,7.69
2023-04-27T05:06:56.647Z,7.70
2023-04-27T05:08:28.751Z,7.72
2023-04-27T05:10:00.708Z,7.76
2023-04-27T05:11:32.916Z,7.78
2023-04-27T05:13:06.502Z,7.81
2023-04-27T05:14:38.606Z,7.84
2023-04-27T05:16:10.185Z,7.86
2023-04-27T05:17:42.220Z,7.86
2023-04-27T05:19:18.269Z,7.89
2023-04-27T05:20:50.535Z,7.91
2023-04-27T05:22:22.098Z,7.97
2023-04-27T05:23:53.671Z,8.05
2023-04-27T05:25:25.593Z,8.16
2023-04-27T05:26:58.595Z,8.26
2023-04-27T05:28:32.119Z,8.42
2023-04-27T05:30:05.052Z,8.54
2023-04-27T05:31:38.005Z,8.67
2023-04-27T05:33:09.668Z,8.80
2023-04-27T05:34:45.026Z,8.97
2023-04-27T05:36:19.991Z,9.11
2023-04-27T05:37:51.714Z,9.24
2023-04-27T05:39:23.544Z,9.38
2023-04-27T05:40:56.440Z,9.57
2023-04-27T05:42:28.470Z,9.69
2023-04-27T05:44:00.679Z,9.82
2023-04-27T05:45:32.671Z,9.92
2023-04-27T05:47:05.046Z,10.05
2023-04-27T05:48:37.175Z,10.17
2023-04-27T05:50:10.188Z,10.27
2023-04-27T05:51:42.431Z,10.29
2023-04-27T05:53:14.273Z,10.37
2023-04-27T05:54:48.988Z,10.43
2023-04-27T05:56:20.489Z,10.52
2023-04-27T05:58:06.676Z,10.62
2023-04-27T05:59:40.452Z,10.79
2023-04-27T06:01:12.660Z,10.95
2023-04-27T06:02:44.918Z,11.08
2023-04-27T06:04:16.818Z,11.20
2023-04-27T06:05:53.641Z,11.24
2023-04-27T06:07:25.170Z,11.38
2023-04-27T06:08:57.221Z,11.59
2023-04-27T06:10:28.951Z,11.72
2023-04-27T06:12:00.653Z,11.76
2023-04-27T06:13:33.559Z,11.83
2023-04-27T06:15:08.633Z,11.88
2023-04-27T06:16:41.497Z,11.92
2023-04-27T06:18:13.333Z,12.01
2023-04-27T06:19:45.152Z,12.16
2023-04-27T06:21:16.757Z,12.30
2023-04-27T06:22:51.267Z,12.45
2023-04-27T06:24:22.888Z,12.48
2023-04-27T06:25:54.515Z,12.56
2023-04-27T06:27:26.064Z,12.72
2023-04-27T06:28:57.631Z,12.80
2023-04-27T06:30:29.253Z,12.83
2023-04-27T06:32:01.929Z,12.75
2023-04-27T06:33:33.900Z,12.63
2023-04-27T06:35:05.947Z,12.60
2023-04-27T06:36:37.938Z,12.55
2023-04-27T06:38:09.802Z,12.58
2023-04-27T06:39:41.730Z,12.66
2023-04-27T06:41:13.551Z,12.67
2023-04-27T06:42:45.576Z,12.57
2023-04-27T06:44:17.156Z,12.53
2023-04-27T06:45:49.126Z,12.43
2023-04-27T06:47:21.369Z,12.36
2023-04-27T06:48:53.630Z,12.30
2023-04-27T06:50:25.083Z,12.24
2023-04-27T06:51:56.572Z,12.12
2023-04-27T06:53:28.142Z,12.09
2023-04-27T06:54:59.672Z,12.06
2023-04-27T06:56:31.334Z,12.05
2023-04-27T06:58:03.574Z,11.95
2023-04-27T06:59:35.319Z,11.92
2023-04-27T07:01:07.132Z,11.89
2023-04-27T07:02:39.227Z,11.79
2023-04-27T07:04:11.451Z,11.78
2023-04-27T07:05:43.462Z,11.83
2023-04-27T07:07:15.004Z,11.76
2023-04-27T07:08:46.709Z,11.72
2023-04-27T07:10:18.783Z,11.79
2023-04-27T07:11:50.843Z,11.95
2023-04-27T07:13:22.359Z,12.06
2023-04-27T07:14:54.462Z,12.20
2023-04-27T07:16:26.631Z,12.31
2023-04-27T07:17:58.626Z,12.43
2023-04-27T07:19:30.192Z,12.55
2023-04-27T07:21:02.026Z,12.66
2023-04-27T07:22:33.794Z,12.84
2023-04-27T07:24:06.298Z,13.00
2023-04-27T07:25:40.370Z,13.13
2023-04-27T07:27:12.146Z,13.15
2023-04-27T07:28:44.403Z,13.17
2023-04-27T07:30:17.366Z,13.23
2023-04-27T07:31:51.388Z,13.30
2023-04-27T07:33:24.194Z,13.43
2023-04-27T07:34:56.598Z,13.60
2023-04-27T07:36:28.688Z,13.71
2023-04-27T07:38:01.787Z,13.80
2023-04-27T07:39:33.408Z,13.88
2023-04-27T07:41:05.884Z,13.92
2023-04-27T07:42:38.465Z,13.91
2023-04-27T07:44:10.364Z,13.91
2023-04-27T07:45:42.442Z,13.93
2023-04-27T07:47:14.053Z,13.88
2023-04-27T07:48:45.984Z,13.90
2023-04-27T07:50:18.710Z,13.90
2023-04-27T07:51:50.563Z,13.83
2023-04-27T07:53:22.685Z,13.70
2023-04-27T07:54:54.326Z,13.68
2023-04-27T07:56:25.849Z,13.75
2023-04-27T07:57:57.710Z,13.87
2023-04-27T07:59:29.601Z,13.99
2023-04-27T08:01:01.339Z,14.15
2023-04-27T08:02:34.955Z,14.26
2023-04-27T08:04:08.014Z,14.36
2023-04-27T08:05:40.276Z,14.45
2023-04-27T08:07:17.620Z,14.60
2023-04-27T08:08:50.021Z,14.61
2023-04-27T08:10:21.986Z,14.56
2023-04-27T08:11:53.824Z,14.52
2023-04-27T08:13:25.716Z,14.49
2023-04-27T08:14:57.930Z,14.55
2023-04-27T08:16:29.767Z,14.52
2023-04-27T08:18:01.643Z,14.44
2023-04-27T08:19:33.262Z,14.41
2023-04-27T08:21:04.947Z,14.33
2023-04-27T08:22:37.343Z,14.31
2023-04-27T08:24:09.104Z,14.33
2023-04-27T08:25:40.725Z,14.42
2023-04-27T08:27:12.281Z,14.55
2023-04-27T08:28:43.950Z,14.63
2023-04-27T08:30:16.140Z,14.62
2023-04-27T08:31:48.591Z,14.55
2023-04-27T08:33:27.825Z,14.56
2023-04-27T08:34:59.715Z,14.57
2023-04-27T08:36:31.845Z,14.49
2023-04-27T08:38:03.526Z,14.42
2023-04-27T08:39:35.084Z,14.42
2023-04-27T08:41:20.337Z,14.37
2023-04-27T08:42:57.287Z,14.36
2023-04-27T08:44:29.739Z,14.33
2023-04-27T08:46:01.499Z,14.46
2023-04-27T08:47:42.576Z,14.69
2023-04-27T08:49:16.858Z,14.93
2023-04-27T08:50:50.150Z,15.12
2023-04-27T08:52:22.109Z,15.31
2023-04-27T08:53:54.468Z,15.37
2023-04-27T08:55:26.091Z,15.40
2023-04-27T08:56:58.138Z,15.45
2023-04-27T08:58:36.952Z,15.53
2023-04-27T09:00:14.737Z,15.51
2023-04-27T09:01:48.614Z,15.38
2023-04-27T09:03:24.544Z,15.33
2023-04-27T09:04:57.194Z,15.21
2023-04-27T09:06:32.116Z,15.15
2023-04-27T09:08:05.912Z,15.13
2023-04-27T09:09:37.433Z,15.25
2023-04-27T09:11:09.388Z,15.36
2023-04-27T09:12:41.115Z,15.43
2023-04-27T09:14:22.618Z,15.45
2023-04-27T09:15:54.394Z,15.40
2023-04-27T09:17:28.096Z,15.39
2023-04-27T09:19:00.289Z,15.36
2023-04-27T09:20:32.195Z,15.27
2023-04-27T09:22:07.725Z,15.17
2023-04-27T09:23:41.885Z,15.13
2023-04-27T09:25:23.341Z,15.12
2023-04-27T09:26:54.858Z,15.08
2023-04-27T09:28:31.235Z,15.13
2023-04-27T09:30:12.244Z,15.09
2023-04-27T09:31:44.147Z,15.04
2023-04-27T09:33:16.087Z,15.13
2023-04-27T09:34:48.534Z,15.22
2023-04-27T09:36:20.361Z,15.40
2023-04-27T09:37:54.691Z,15.61
2023-04-27T09:39:26.269Z,15.91
2023-04-27T09:40:57.859Z,16.15
2023-04-27T09:42:29.450Z,16.30
2023-04-27T09:44:01.802Z,16.34
2023-04-27T09:45:33.572Z,16.38
2023-04-27T09:47:05.248Z,16.38
2023-04-27T09:48:38.690Z,16.25
2023-04-27T09:50:10.510Z,16.17
2023-04-27T09:51:42.220Z,16.16
2023-04-27T09:53:14.527Z,16.25
2023-04-27T09:54:46.521Z,16.30
2023-04-27T09:56:21.888Z,16.24
2023-04-27T09:58:12.235Z,16.23
2023-04-27T09:59:44.345Z,16.24
2023-04-27T10:01:22.264Z,16.22
2023-04-27T10:03:12.932Z,16.17
2023-04-27T10:05:10.567Z,16.10
2023-04-27T10:06:43.251Z,15.96
2023-04-27T10:08:15.319Z,15.82
2023-04-27T10:09:47.738Z,15.68
2023-04-27T10:11:20.024Z,15.61
2023-04-27T10:12:58.734Z,15.61
2023-04-27T10:14:31.717Z,15.70
2023-04-27T10:16:25.051Z,15.76
2023-04-27T10:17:59.285Z,15.92
2023-04-27T10:19:31.399Z,16.13
2023-04-27T10:21:12.621Z,16.36
2023-04-27T10:22:44.903Z,16.52
2023-04-27T10:24:16.959Z,16.52
2023-04-27T10:25:48.532Z,16.53
2023-04-27T10:27:21.845Z,16.54
2023-04-27T10:29:21.850Z,16.46
2023-04-27T10:30:53.478Z,16.42
2023-04-27T10:32:26.135Z,16.52
2023-04-27T10:34:11.046Z,16.54
2023-04-27T10:35:43.205Z,16.64
2023-04-27T10:37:14.974Z,16.74
2023-04-27T10:38:46.787Z,16.82
2023-04-27T10:40:19.059Z,17.00
2023-04-27T10:41:54.120Z,17.18
2023-04-27T10:43:29.184Z,17.41
2023-04-27T10:45:01.232Z,17.62
2023-04-27T10:46:32.797Z,17.66
2023-04-27T10:48:05.732Z,17.69
2023-04-27T10:49:38.200Z,17.64
2023-04-27T10:51:09.898Z,17.64
2023-04-27T10:52:42.454Z,17.56
2023-04-27T10:54:19.541Z,17.29
2023-04-27T10:56:05.410Z,17.17
2023-04-27T11:05:34.273Z,17.09
2023-04-27T11:07:06.679Z,17.03
2023-04-27T11:08:43.818Z,16.92
2023-04-27T11:10:16.044Z,16.83
2023-04-27T11:11:48.242Z,16.75
2023-04-27T11:13:20.906Z,16.63
2023-04-27T11:14:57.781Z,16.60
2023-04-27T11:16:32.033Z,16.56
2023-04-27T11:18:05.105Z,16.43
2023-04-27T11:19:46.326Z,16.30
2023-04-27T11:21:19.177Z,16.20
2023-04-27T11:22:54.077Z,16.17
2023-04-27T11:24:26.913Z,16.22
2023-04-27T11:25:59.548Z,16.28
2023-04-27T11:27:38.971Z,16.44
2023-04-27T11:29:14.548Z,16.65
2023-04-27T11:30:46.415Z,16.81
2023-04-27T11:32:25.202Z,16.98
2023-04-27T11:33:57.266Z,17.06
2023-04-27T11:35:34.960Z,17.20
2023-04-27T11:37:17.862Z,17.22
2023-04-27T11:38:49.944Z,17.31
2023-04-27T11:40:24.401Z,17.37
2023-04-27T11:41:56.294Z,17.30
2023-04-27T11:43:27.974Z,17.16
2023-04-27T11:45:00.713Z,17.01
2023-04-27T11:46:32.756Z,16.98
2023-04-27T11:48:04.377Z,17.02
2023-04-27T11:49:36.058Z,16.95
2023-04-27T11:51:08.080Z,16.93
2023-04-27T11:52:42.621Z,17.03
2023-04-27T11:54:14.568Z,17.06
2023-04-27T11:55:52.270Z,17.04
2023-04-27T11:57:27.842Z,16.96
2023-04-27T11:58:59.577Z,16.76
2023-04-27T12:00:31.532Z,16.60
2023-04-27T12:02:04.208Z,16.59
2023-04-27T12:03:36.812Z,16.70
2023-04-27T12:05:09.796Z,16.71
2023-04-27T12:06:42.716Z,16.69
2023-04-27T12:08:14.651Z,16.72
2023-04-27T12:09:46.659Z,16.77
2023-04-27T12:11:19.227Z,16.80
2023-04-27T12:12:51.464Z,16.70
2023-04-27T12:14:25.097Z,16.63
2023-04-27T12:15:58.471Z,16.67
2023-04-27T12:17:30.771Z,16.75
2023-04-27T12:19:02.525Z,16.85
2023-04-27T12:20:34.403Z,16.89
2023-04-27T12:22:06.552Z,17.01
2023-04-27T12:23:38.208Z,17.15
2023-04-27T12:25:10.058Z,17.25
2023-04-27T12:26:41.732Z,17.28
2023-04-27T12:28:19.114Z,17.33
2023-04-27T12:29:50.758Z,17.38
2023-04-27T12:31:26.952Z,17.25
2023-04-27T12:33:00.932Z,17.23
2023-04-27T12:34:33.336Z,17.22
2023-04-27T12:36:05.296Z,17.19
2023-04-27T12:37:37.545Z,17.14
2023-04-27T12:39:13.853Z,17.09
2023-04-27T12:40:45.398Z,17.08
2023-04-27T12:42:19.592Z,17.16
2023-04-27T12:43:51.590Z,17.19
2023-04-27T12:45:23.185Z,17.21
2023-04-27T12:46:55.587Z,17.21
2023-04-27T12:48:27.428Z,17.21
2023-04-27T12:49:59.550Z,17.08
2023-04-27T12:51:31.296Z,17.00
2023-04-27T12:53:03.839Z,16.99
2023-04-27T12:54:36.721Z,16.94
2023-04-27T12:56:08.367Z,16.93
2023-04-27T12:57:39.949Z,17.07
2023-04-27T12:59:11.652Z,17.20
2023-04-27T13:00:43.188Z,17.21
2023-04-27T13:02:15.152Z,17.20
2023-04-27T13:03:47.669Z,17.18
2023-04-27T13:05:19.541Z,17.19
2023-04-27T13:06:51.291Z,17.20
2023-04-27T13:08:22.973Z,17.19
2023-04-27T13:09:54.445Z,17.26
2023-04-27T13:11:26.872Z,17.30
2023-04-27T13:12:59.958Z,17.19
2023-04-27T13:14:33.603Z,17.16
2023-04-27T13:16:05.273Z,17.20
2023-04-27T13:17:37.157Z,17.23
2023-04-27T13:19:08.701Z,17.27
2023-04-27T13:20:40.364Z,17.36
2023-04-27T13:22:12.212Z,17.49
2023-04-27T13:23:43.940Z,17.58
2023-04-27T13:25:16.678Z,17.56
2023-04-27T13:26:48.192Z,17.62
2023-04-27T13:28:20.052Z,17.63
2023-04-27T13:29:52.009Z,17.62
2023-04-27T13:31:28.572Z,17.57
2023-04-27T13:33:14.344Z,17.55
2023-04-27T13:34:53.391Z,17.52
2023-04-27T13:36:29.723Z,17.49
2023-04-27T13:38:02.069Z,17.37
2023-04-27T13:39:34.731Z,17.23
2023-04-27T13:41:08.777Z,17.21
2023-04-27T13:42:41.019Z,17.14
2023-04-27T13:44:12.917Z,17.00
2023-04-27T13:45:45.922Z,16.90
2023-04-27T13:47:23.368Z,16.78
2023-04-27T13:48:59.677Z,16.80
2023-04-27T13:50:32.737Z,16.79
2023-04-27T13:52:04.611Z,16.75
2023-04-27T13:53:36.225Z,16.68
2023-04-27T13:55:08.910Z,16.65
2023-04-27T13:56:40.669Z,16.58
2023-04-27T13:58:14.100Z,16.54
2023-04-27T13:59:45.660Z,16.53
2023-04-27T14:01:17.367Z,16.52
2023-04-27T14:02:49.118Z,16.61
2023-04-27T14:04:21.036Z,16.76
2023-04-27T14:05:52.696Z,16.90
2023-04-27T14:07:24.228Z,17.04
2023-04-27T14:08:55.931Z,17.19
2023-04-27T14:10:27.677Z,17.35
2023-04-27T14:11:59.360Z,17.50
2023-04-27T14:13:30.907Z,17.60
2023-04-27T14:15:02.747Z,17.64
2023-04-27T14:16:34.486Z,17.70
2023-04-27T14:18:07.128Z,17.69
2023-04-27T14:19:38.947Z,17.56
2023-04-27T14:21:10.709Z,17.51
2023-04-27T14:22:42.290Z,17.50
2023-04-27T14:24:13.853Z,17.47
2023-04-27T14:25:45.519Z,17.41
2023-04-27T14:27:17.226Z,17.35
2023-04-27T14:28:48.865Z,17.43
2023-04-27T14:30:20.566Z,17.43
2023-04-27T14:31:52.349Z,17.41
2023-04-27T14:33:24.052Z,17.37
2023-04-27T14:34:55.887Z,17.40
2023-04-27T14:36:27.973Z,17.42
2023-04-27T14:38:02.588Z,17.39
2023-04-27T14:39:34.292Z,17.43
2023-04-27T14:41:06.183Z,17.43
2023-04-27T14:42:37.851Z,17.41
2023-04-27T14:44:09.712Z,17.34
2023-04-27T14:45:52.440Z,17.31
2023-04-27T14:47:26.039Z,17.27
2023-04-27T14:48:57.859Z,17.23
2023-04-27T14:50:29.621Z,17.09
2023-04-27T14:52:05.211Z,16.97
2023-04-27T14:53:37.221Z,16.86
2023-04-27T14:55:09.139Z,16.81
2023-04-27T14:56:40.809Z,16.74
2023-04-27T14:58:12.527Z,16.73
2023-04-27T14:59:44.742Z,16.81
2023-04-27T15:01:16.980Z,16.80
2023-04-27T15:02:49.099Z,16.75
2023-04-27T15:04:21.211Z,16.73
2023-04-27T15:05:52.942Z,16.81
2023-04-27T15:07:24.620Z,16.94
2023-04-27T15:08:56.649Z,17.09
2023-04-27T15:10:28.147Z,17.22
2023-04-27T15:12:00.044Z,17.36
2023-04-27T15:13:31.549Z,17.45
2023-04-27T15:15:03.925Z,17.44
2023-04-27T15:16:35.747Z,17.41
2023-04-27T15:18:07.577Z,17.38
2023-04-27T15:19:39.291Z,17.30
2023-04-27T15:21:11.036Z,17.26
2023-04-27T15:22:42.994Z,17.20
2023-04-27T15:24:14.525Z,17.15
2023-04-27T15:25:46.935Z,17.12
2023-04-27T15:27:19.261Z,17.09
2023-04-27T15:28:51.437Z,17.05
2023-04-27T15:30:23.469Z,17.09
2023-04-27T15:31:55.365Z,17.02
2023-04-27T15:33:27.480Z,17.03
2023-04-27T15:34:59.122Z,17.04
2023-04-27T15:36:31.978Z,16.97
2023-04-27T15:38:04.312Z,16.85
2023-04-27T15:39:36.405Z,16.78
2023-04-27T15:41:07.945Z,16.72
2023-04-27T15:42:39.575Z,16.56
2023-04-27T15:44:11.555Z,16.45
2023-04-27T15:45:44.137Z,16.43
2023-04-27T15:47:15.710Z,16.43
2023-04-27T15:48:47.176Z,16.45
2023-04-27T15:50:18.777Z,16.43
2023-04-27T15:51:51.336Z,16.33
2023-04-27T15:53:23.196Z,16.22
2023-04-27T15:54:55.010Z,16.16
2023-04-27T15:56:30.879Z,16.09
2023-04-27T15:58:03.228Z,15.98
2023-04-27T15:59:36.030Z,15.81
2023-04-27T16:01:10.718Z,15.71
2023-04-27T16:02:42.698Z,15.56
2023-04-27T16:04:16.195Z,15.43
2023-04-27T16:05:51.552Z,15.27
2023-04-27T16:07:23.017Z,15.13
2023-04-27T16:08:54.563Z,15.07
2023-04-27T16:10:29.853Z,15.01
2023-04-27T16:12:05.599Z,14.94
2023-04-27T16:13:42.503Z,14.82
2023-04-27T16:15:16.076Z,14.74
2023-04-27T16:16:48.483Z,14.71
2023-04-27T16:18:27.442Z,14.62
2023-04-27T16:19:59.456Z,14.54
2023-04-27T16:21:31.607Z,14.48
2023-04-27T16:23:03.242Z,14.43
2023-04-27T16:24:35.679Z,14.45
2023-04-27T16:26:11.294Z,14.48
2023-04-27T16:27:47.719Z,14.48
2023-04-27T16:29:24.710Z,14.47
2023-04-27T16:31:45.733Z,14.46
2023-04-27T16:34:01.992Z,14.40
2023-04-27T16:35:34.591Z,14.40
2023-04-27T16:37:06.299Z,14.39
2023-04-27T16:38:39.295Z,14.35
2023-04-27T16:40:11.756Z,14.31
2023-04-27T16:41:43.371Z,14.27
2023-04-27T16:43:14.976Z,14.27
2023-04-27T16:44:46.889Z,14.24
2023-04-27T16:46:18.558Z,14.18
2023-04-27T16:47:50.847Z,14.15
2023-04-27T16:49:22.554Z,14.10
2023-04-27T16:50:55.650Z,14.02
2023-04-27T16:52:27.335Z,13.99
2023-04-27T16:53:58.917Z,13.95
2023-04-27T16:55:31.486Z,13.90
2023-04-27T16:57:03.065Z,13.83
2023-04-27T16:58:39.625Z,13.76
2023-04-27T17:00:17.464Z,13.67
2023-04-27T17:02:17.071Z,13.60
2023-04-27T17:09:12.825Z,13.34
2023-04-27T17:10:45.587Z,13.29
2023-04-27T17:12:17.452Z,13.25
2023-04-27T17:13:51.610Z,13.20
2023-04-27T17:15:25.895Z,13.17
2023-04-27T17:16:57.489Z,13.12
2023-04-27T17:18:29.093Z,13.05
2023-04-27T17:20:01.070Z,12.97
2023-04-27T17:21:34.112Z,12.87
2023-04-27T17:23:07.297Z,12.76
2023-04-27T17:24:39.505Z,12.66
2023-04-27T17:26:12.259Z,12.58
2023-04-27T17:27:43.816Z,12.52
2023-04-27T17:29:16.386Z,12.45
2023-04-27T17:30:47.980Z,12.37
2023-04-27T17:32:19.425Z,12.28
2023-04-27T17:33:50.976Z,12.23
2023-04-27T17:35:22.528Z,12.15
2023-04-27T17:36:54.410Z,12.06
2023-04-27T17:40:22.102Z,11.93
2023-04-27T17:41:59.622Z,11.87
2023-04-27T17:46:22.816Z,11.79
2023-04-27T17:47:55.227Z,11.75
2023-04-27T17:49:28.085Z,11.67
2023-04-27T17:51:00.696Z,11.64
2023-04-27T17:52:43.682Z,11.62
2023-04-27T17:54:23.210Z,11.58
2023-04-27T17:56:06.131Z,11.56
2023-04-27T17:57:43.376Z,11.55
2023-04-27T17:59:46.189Z,11.52
2023-04-27T18:01:17.522Z,11.51
2023-04-27T18:02:49.855Z,11.50
2023-04-27T18:04:21.872Z,11.50
2023-04-27T18:05:53.690Z,11.49
2023-04-27T18:07:25.765Z,11.48
2023-04-27T18:08:57.472Z,11.46
2023-04-27T18:10:29.032Z,11.44
2023-04-27T18:12:00.833Z,11.42
2023-04-27T18:13:32.723Z,11.38
2023-04-27T18:15:06.940Z,11.41
2023-04-27T18:16:40.322Z,11.36
2023-04-27T18:18:13.714Z,11.31
2023-04-27T18:19:45.327Z,11.28
2023-04-27T18:21:17.288Z,11.29
2023-04-27T18:22:49.084Z,11.33
2023-04-27T18:24:20.570Z,11.30
2023-04-27T18:25:52.379Z,11.28
2023-04-27T18:27:24.348Z,11.26
2023-04-27T18:28:56.201Z,11.23
2023-04-27T18:30:28.650Z,11.17
2023-04-27T18:32:05.720Z,11.14
2023-04-27T18:33:37.828Z,11.14
2023-04-27T18:35:10.194Z,11.12
2023-04-27T18:36:42.288Z,11.12
2023-04-27T18:38:13.791Z,11.10
2023-04-27T18:39:45.346Z,11.12
2023-04-27T18:41:17.100Z,11.12
2023-04-27T18:42:49.004Z,11.12
2023-04-27T18:44:20.718Z,11.10
2023-04-27T18:45:52.283Z,11.04
2023-04-27T18:47:24.099Z,11.03
2023-04-27T18:48:55.606Z,11.03
2023-04-27T18:50:27.223Z,11.00
2023-04-27T18:51:59.017Z,10.96
2023-04-27T18:53:30.619Z,10.94
2023-04-27T18:55:02.760Z,10.91
2023-04-27T18:56:34.859Z,10.89
2023-04-27T18:58:06.997Z,10.85
2023-04-27T18:59:54.044Z,10.82
2023-04-27T19:03:32.416Z,10.77
2023-04-27T19:05:12.278Z,10.81
2023-04-27T19:06:45.524Z,10.79
2023-04-27T19:08:17.061Z,10.79
2023-04-27T19:09:49.488Z,10.79
2023-04-27T19:11:22.494Z,10.79
2023-04-27T19:12:56.345Z,10.78
2023-04-27T19:14:28.058Z,10.75
2023-04-27T19:15:59.654Z,10.74
2023-04-27T19:17:31.623Z,10.70
2023-04-27T19:19:04.343Z,10.65
2023-04-27T19:20:40.920Z,10.62
2023-04-27T19:22:20.183Z,10.61
2023-04-27T19:29:08.824Z,10.55
2023-04-27T19:30:41.064Z,10.57
2023-04-27T19:32:12.638Z,10.55
2023-04-27T19:33:47.165Z,10.49
2023-04-27T19:35:27.592Z,10.37
2023-04-27T19:36:59.244Z,10.31
2023-04-27T19:38:31.185Z,10.27
2023-04-27T19:40:03.465Z,10.22
2023-04-27T19:41:35.047Z,10.17
2023-04-27T19:43:07.792Z,10.15
2023-04-27T19:44:39.360Z,10.12
2023-04-27T19:46:11.136Z,10.07
2023-04-27T19:47:42.684Z,10.09
2023-04-27T19:49:14.270Z,10.06
2023-04-27T19:50:45.946Z,9.99
2023-04-27T19:52:17.469Z,9.96
2023-04-27T19:53:48.987Z,9.93
2023-04-27T19:55:20.867Z,9.93
2023-04-27T19:56:52.471Z,9.91
2023-04-27T19:58:23.984Z,9.92
2023-04-27T19:59:56.329Z,9.89
2023-04-27T20:01:28.587Z,9.88
2023-04-27T20:03:00.513Z,9.86
2023-04-27T20:04:33.029Z,9.86
2023-04-27T20:06:05.890Z,9.84
2023-04-27T20:07:37.581Z,9.82
2023-04-27T20:09:09.315Z,9.80
2023-04-27T20:10:41.340Z,9.78
2023-04-27T20:12:34.918Z,9.75
2023-04-27T20:14:05.330Z,9.74
2023-04-27T20:15:37.806Z,9.74
2023-04-27T20:17:09.330Z,9.72
2023-04-27T20:18:47.690Z,9.69
2023-04-27T20:20:27.679Z,9.65
2023-04-27T20:22:03.900Z,9.60
2023-04-27T20:23:40.826Z,9.54
2023-04-27T20:28:13.466Z,9.48
2023-04-27T20:29:47.361Z,9.46
2023-04-27T20:31:18.985Z,9.45
2023-04-27T20:32:50.568Z,9.42
2023-04-27T20:34:22.105Z,9.42
2023-04-27T20:36:01.014Z,9.45
2023-04-27T20:37:38.689Z,9.41
2023-04-27T20:39:11.921Z,9.36